createdAt,value
2023-03-23T15:59:06.474Z,99020.83
2023-03-23T16:04:15.613Z,99023.81
2023-03-23T16:09:21.227Z,99020.13
2023-03-23T16:14:24.943Z,99011.77
2023-03-23T16:19:28.327Z,99009.17
2023-03-23T16:24:32.535Z,99019.78
2023-03-23T16:29:59.771Z,99010.80
2023-03-23T16:35:01.678Z,99009.17
2023-03-23T16:40:07.534Z,99010.45
2023-03-23T16:45:14.009Z,99010.83
2023-03-23T16:50:19.123Z,99011.98
2023-03-23T16:55:23.359Z,99011.17
2023-03-23T17:00:27.709Z,99017.70
2023-03-23T17:05:31.801Z,99022.02
2023-03-23T17:10:38.839Z,99026.70
2023-03-23T17:15:46.046Z,99029.13
2023-03-23T17:20:53.844Z,99038.43
2023-03-23T17:25:57.831Z,99045.40
2023-03-23T17:31:01.861Z,99056.83
2023-03-23T17:36:06.951Z,99062.05
2023-03-23T17:41:11.964Z,99068.02
2023-03-23T17:46:16.310Z,99075.80
2023-03-23T17:51:19.963Z,99080.14
2023-03-23T17:56:23.896Z,99070.35
2023-03-23T18:01:27.541Z,99070.80
2023-03-23T18:06:33.858Z,99067.45
2023-03-23T18:11:39.487Z,99072.44
2023-03-23T18:16:43.580Z,99087.30
2023-03-23T18:21:49.132Z,99101.60
2023-03-23T18:26:53.389Z,99102.86
2023-03-23T18:31:58.139Z,99099.55
2023-03-23T18:37:03.597Z,99099.50
2023-03-23T18:42:08.450Z,99088.36
2023-03-23T18:47:12.997Z,99092.02
2023-03-23T18:52:19.189Z,99096.30
2023-03-23T18:57:24.016Z,99099.47
2023-03-23T19:02:29.667Z,99093.58
2023-03-23T19:07:34.401Z,99092.09
2023-03-23T19:12:38.332Z,99091.80
2023-03-23T19:17:42.030Z,99096.24
2023-03-23T19:22:46.061Z,99102.14
2023-03-23T19:28:38.534Z,99098.45
2023-03-23T19:33:15.689Z,99095.60
2023-03-23T19:38:23.693Z,99088.69
2023-03-23T19:43:28.740Z,99101.25
2023-03-23T19:48:33.795Z,99098.52
2023-03-23T19:53:39.800Z,99106.02
2023-03-23T19:58:47.231Z,99105.85
2023-03-23T20:03:53.522Z,99105.42
2023-03-23T20:09:01.288Z,99100.45
2023-03-23T20:14:06.966Z,99101.95
2023-03-23T20:19:10.770Z,99083.98
2023-03-23T20:24:15.262Z,99090.23
2023-03-23T20:29:19.624Z,99090.95
2023-03-23T20:34:32.939Z,99093.35
2023-03-23T20:39:42.725Z,99101.48
2023-03-23T20:44:47.830Z,99101.11
2023-03-23T20:49:57.147Z,99103.94
2023-03-23T20:55:03.485Z,99117.27
2023-03-23T21:00:09.961Z,99116.51
2023-03-23T21:05:13.923Z,99116.20
2023-03-23T21:10:18.410Z,99117.97
2023-03-23T21:15:22.944Z,99116.09
2023-03-23T21:20:27.984Z,99113.23
2023-03-23T21:25:35.485Z,99107.96
2023-03-23T21:30:46.796Z,99108.16
2023-03-23T21:35:51.562Z,99114.29
2023-03-23T21:40:59.403Z,99123.23
2023-03-23T21:46:06.728Z,99122.98
2023-03-23T21:51:15.195Z,99114.66
2023-03-23T21:56:19.862Z,99118.81
2023-03-23T22:01:25.362Z,99124.60
2023-03-23T22:06:32.245Z,99131.58
2023-03-23T22:11:38.627Z,99134.46
2023-03-23T22:16:43.879Z,99140.30
2023-03-23T22:21:48.393Z,99130.69
2023-03-23T22:26:52.702Z,99131.50
2023-03-23T22:31:57.345Z,99128.96
2023-03-23T22:37:02.184Z,99135.89
2023-03-23T22:42:06.232Z,99138.48
2023-03-23T22:47:10.852Z,99140.98
2023-03-23T22:52:15.377Z,99142.71
2023-03-23T22:57:22.423Z,99143.46
2023-03-23T23:02:27.584Z,99145.35
2023-03-23T23:07:32.497Z,99146.98
2023-03-23T23:12:37.369Z,99148.04
2023-03-23T23:17:43.523Z,99150.98
2023-03-23T23:22:48.920Z,99150.60
2023-03-23T23:27:53.416Z,99147.95
2023-03-23T23:32:59.754Z,99141.85
2023-03-23T23:38:05.719Z,99141.26
2023-03-23T23:43:16.368Z,99145.60
2023-03-23T23:48:21.344Z,99141.37
2023-03-23T23:53:26.198Z,99140.58
2023-03-23T23:58:31.290Z,99140.83
